createdAt,value
2022-09-17T00:01:21.695Z,11.30
2022-09-17T00:03:53.828Z,11.30
2022-09-17T00:06:21.505Z,11.30
2022-09-17T00:08:48.660Z,11.20
2022-09-17T00:11:21.161Z,11.20
2022-09-17T00:13:49.484Z,11.20
2022-09-17T00:16:34.372Z,11.20
2022-09-17T00:19:02.765Z,11.20
2022-09-17T00:21:30.094Z,11.20
2022-09-17T00:23:59.407Z,11.20
2022-09-17T00:26:27.405Z,11.20
2022-09-17T00:28:55.702Z,11.20
2022-09-17T00:31:23.320Z,11.20
2022-09-17T00:33:50.576Z,11.20
2022-09-17T00:36:18.323Z,11.20
2022-09-17T00:38:48.150Z,11.20
2022-09-17T00:41:15.113Z,11.10
2022-09-17T00:43:45.952Z,11.10
2022-09-17T00:46:36.800Z,11.10
2022-09-17T00:49:11.453Z,11.10
2022-09-17T00:51:44.810Z,11.10
2022-09-17T00:54:12.065Z,11.10
2022-09-17T00:56:41.592Z,11.10
2022-09-17T00:59:08.976Z,11.00
2022-09-17T01:01:36.659Z,11.00
2022-09-17T01:04:03.660Z,11.00
2022-09-17T01:06:51.358Z,11.00
2022-09-17T01:09:24.149Z,11.00
2022-09-17T01:11:59.871Z,11.00
2022-09-17T01:14:35.862Z,11.00
2022-09-17T01:17:25.671Z,11.00
2022-09-17T01:20:12.546Z,10.90
2022-09-17T01:22:58.407Z,10.90
2022-09-17T01:25:42.048Z,10.90
2022-09-17T01:28:33.629Z,10.90
2022-09-17T01:31:04.550Z,10.90
2022-09-17T01:33:38.246Z,10.90
2022-09-17T01:36:32.893Z,10.90
2022-09-17T01:39:09.550Z,10.90
2022-09-17T01:42:15.486Z,10.80
2022-09-17T01:45:11.321Z,10.80
2022-09-17T01:47:44.836Z,10.80
2022-09-17T01:50:23.551Z,10.70
2022-09-17T01:52:53.296Z,10.70
2022-09-17T01:55:23.294Z,10.70
2022-09-17T01:58:00.920Z,10.70
2022-09-17T02:00:27.962Z,10.70
2022-09-17T02:03:02.841Z,10.70
2022-09-17T02:05:37.671Z,10.70
2022-09-17T02:08:24.403Z,10.70
2022-09-17T02:11:06.666Z,10.60
2022-09-17T02:13:47.926Z,10.70
2022-09-17T02:16:22.951Z,10.60
2022-09-17T02:18:58.822Z,10.60
2022-09-17T02:21:53.253Z,10.60
2022-09-17T02:24:36.367Z,10.50
2022-09-17T02:27:28.186Z,10.60
2022-09-17T02:29:55.174Z,10.50
2022-09-17T02:32:22.107Z,10.50
2022-09-17T02:34:49.091Z,10.50
2022-09-17T02:37:16.090Z,10.50
2022-09-17T02:39:43.378Z,10.50
2022-09-17T02:42:26.215Z,10.50
2022-09-17T02:45:02.152Z,10.50
2022-09-17T02:47:34.939Z,10.40
2022-09-17T02:50:20.389Z,10.40
2022-09-17T02:52:50.453Z,10.40
2022-09-17T02:55:23.663Z,10.40
2022-09-17T02:58:09.675Z,10.40
2022-09-17T03:00:37.021Z,10.40
2022-09-17T03:03:17.343Z,10.40
2022-09-17T03:05:45.379Z,10.40
2022-09-17T03:08:18.561Z,10.40
2022-09-17T03:10:45.764Z,10.40
2022-09-17T03:13:12.614Z,10.30
2022-09-17T03:15:39.558Z,10.30
2022-09-17T03:18:07.050Z,10.30
2022-09-17T03:20:33.997Z,10.30
2022-09-17T03:23:00.943Z,10.30
2022-09-17T03:25:27.840Z,10.30
2022-09-17T03:27:56.839Z,10.20
2022-09-17T03:30:23.973Z,10.20
2022-09-17T03:32:51.001Z,10.20
2022-09-17T03:35:17.987Z,10.20
2022-09-17T03:37:44.938Z,10.20
2022-09-17T03:40:11.960Z,10.20
2022-09-17T03:42:38.995Z,10.20
2022-09-17T03:45:06.537Z,10.20
2022-09-17T03:47:33.390Z,10.20
2022-09-17T03:50:00.412Z,10.10
2022-09-17T03:52:27.299Z,10.10
2022-09-17T03:54:54.218Z,10.10
2022-09-17T03:57:21.684Z,10.10
2022-09-17T03:59:49.175Z,10.10
2022-09-17T04:02:16.200Z,10.10
2022-09-17T04:04:43.178Z,10.00
2022-09-17T04:07:10.214Z,10.00
2022-09-17T04:09:37.152Z,10.00
2022-09-17T04:12:04.305Z,9.90
2022-09-17T04:14:31.271Z,9.90
2022-09-17T04:16:59.022Z,9.90
2022-09-17T04:19:25.970Z,9.90
2022-09-17T04:21:53.121Z,9.90
2022-09-17T04:24:20.220Z,9.90
2022-09-17T04:26:47.067Z,9.90
2022-09-17T04:29:14.970Z,9.90
2022-09-17T04:31:41.978Z,9.90
2022-09-17T04:34:08.968Z,9.90
2022-09-17T04:36:35.887Z,9.90
2022-09-17T04:39:03.009Z,9.90
2022-09-17T04:41:29.887Z,9.90
2022-09-17T04:43:56.897Z,9.90
2022-09-17T04:46:23.975Z,9.90
2022-09-17T04:48:50.996Z,9.90
2022-09-17T04:51:18.187Z,9.90
2022-09-17T04:53:45.623Z,9.90
2022-09-17T04:56:12.661Z,9.90
2022-09-17T04:58:39.731Z,9.80
2022-09-17T05:01:06.881Z,9.90
2022-09-17T05:03:33.883Z,9.90
2022-09-17T05:06:00.824Z,9.90
2022-09-17T05:08:27.828Z,9.80
2022-09-17T05:10:54.764Z,9.80
2022-09-17T05:13:21.704Z,9.80
2022-09-17T05:15:49.178Z,9.80
2022-09-17T05:18:16.217Z,9.80
2022-09-17T05:20:43.577Z,9.80
2022-09-17T05:23:10.516Z,9.80
2022-09-17T05:25:37.476Z,9.80
2022-09-17T05:28:04.529Z,9.80
2022-09-17T05:30:31.677Z,9.80
2022-09-17T05:33:05.843Z,9.80
2022-09-17T05:35:33.988Z,9.80
2022-09-17T05:38:02.391Z,9.90
2022-09-17T05:40:30.304Z,9.80
2022-09-17T05:43:05.245Z,9.90
2022-09-17T05:45:34.746Z,9.90
2022-09-17T05:48:03.072Z,9.80
2022-09-17T05:50:30.741Z,9.90
2022-09-17T05:53:03.445Z,9.90
2022-09-17T05:55:31.640Z,9.80
2022-09-17T05:57:58.520Z,9.90
2022-09-17T06:00:25.443Z,9.90
2022-09-17T06:02:56.549Z,9.90
2022-09-17T06:05:24.931Z,9.90
2022-09-17T06:07:52.264Z,9.90
2022-09-17T06:10:19.150Z,9.90
2022-09-17T06:12:46.050Z,9.90
2022-09-17T06:15:14.750Z,9.90
2022-09-17T06:17:42.210Z,9.90
2022-09-17T06:20:10.237Z,9.90
2022-09-17T06:22:37.171Z,10.00
2022-09-17T06:25:04.668Z,10.00
2022-09-17T06:27:35.498Z,10.00
2022-09-17T06:30:02.898Z,10.00
2022-09-17T06:32:29.899Z,10.10
2022-09-17T06:34:57.611Z,10.10
2022-09-17T06:37:32.013Z,10.10
2022-09-17T06:39:59.508Z,10.20
2022-09-17T06:42:28.567Z,10.20
2022-09-17T06:44:59.261Z,10.20
2022-09-17T06:47:27.623Z,10.30
2022-09-17T06:49:57.058Z,10.30
2022-09-17T06:52:24.045Z,10.30
2022-09-17T06:54:50.886Z,10.40
2022-09-17T06:57:17.980Z,10.40
2022-09-17T06:59:45.111Z,10.40
2022-09-17T07:02:12.128Z,10.40
2022-09-17T07:04:39.086Z,10.40
2022-09-17T07:07:06.011Z,10.50
2022-09-17T07:09:32.866Z,10.50
2022-09-17T07:11:59.904Z,10.50
2022-09-17T07:14:26.740Z,10.60
2022-09-17T07:16:53.670Z,10.60
2022-09-17T07:19:20.681Z,10.70
2022-09-17T07:21:49.205Z,10.70
2022-09-17T07:24:16.183Z,10.80
2022-09-17T07:26:43.364Z,10.90
2022-09-17T07:29:10.314Z,10.90
2022-09-17T07:31:37.265Z,10.90
2022-09-17T07:34:04.240Z,11.00
2022-09-17T07:36:31.164Z,11.00
2022-09-17T07:38:58.066Z,11.10
2022-09-17T07:41:25.224Z,11.10
2022-09-17T07:43:54.829Z,11.10
2022-09-17T07:46:22.176Z,11.20
2022-09-17T07:48:50.676Z,11.20
2022-09-17T07:51:26.135Z,11.30
2022-09-17T07:53:58.229Z,11.40
2022-09-17T07:56:27.102Z,11.40
2022-09-17T07:58:54.726Z,11.40
2022-09-17T08:01:22.822Z,11.50
2022-09-17T08:03:52.183Z,11.60
2022-09-17T08:06:31.113Z,11.70
2022-09-17T08:09:02.455Z,11.80
2022-09-17T08:11:54.438Z,11.90
2022-09-17T08:14:18.435Z,11.90
2022-09-17T08:16:47.393Z,12.00
2022-09-17T08:19:14.466Z,12.10
2022-09-17T08:21:41.347Z,12.20
2022-09-17T08:24:08.420Z,12.30
2022-09-17T08:26:36.016Z,12.40
2022-09-17T08:29:03.399Z,12.40
2022-09-17T08:31:30.715Z,12.50
2022-09-17T08:33:58.109Z,12.60
2022-09-17T08:36:26.466Z,12.70
2022-09-17T08:38:55.052Z,12.80
2022-09-17T08:41:40.259Z,12.90
2022-09-17T08:44:26.374Z,12.90
2022-09-17T08:47:18.872Z,13.10
2022-09-17T08:49:58.990Z,13.20
2022-09-17T08:52:37.698Z,13.30
2022-09-17T08:55:15.300Z,13.40
2022-09-17T08:57:57.169Z,13.50
2022-09-17T09:00:24.790Z,13.60
2022-09-17T09:03:29.255Z,13.70
2022-09-17T09:05:56.613Z,13.90
2022-09-17T09:08:43.714Z,13.90
2022-09-17T09:11:31.545Z,14.10
2022-09-17T09:14:11.955Z,14.20
2022-09-17T09:16:45.968Z,14.30
2022-09-17T09:19:39.107Z,14.40
2022-09-17T09:22:24.868Z,14.50
2022-09-17T09:25:15.099Z,14.60
2022-09-17T09:28:11.935Z,14.70
2022-09-17T09:31:11.417Z,14.90
2022-09-17T09:33:45.651Z,15.00
2022-09-17T09:36:21.515Z,15.10
2022-09-17T09:38:51.969Z,15.20
2022-09-17T09:41:25.161Z,15.30
2022-09-17T09:44:05.356Z,15.40
2022-09-17T09:47:10.673Z,15.40
2022-09-17T09:49:40.847Z,15.50
2022-09-17T09:52:07.742Z,15.60
2022-09-17T09:54:59.453Z,15.60
2022-09-17T09:57:35.383Z,15.60
2022-09-17T10:00:40.302Z,15.80
2022-09-17T10:03:16.164Z,15.90
2022-09-17T10:06:13.384Z,15.90
2022-09-17T10:08:45.163Z,16.00
2022-09-17T10:11:12.004Z,16.10
2022-09-17T10:13:39.720Z,16.20
2022-09-17T10:16:25.373Z,16.30
2022-09-17T10:19:07.480Z,16.40
2022-09-17T10:21:37.158Z,16.50
2022-09-17T10:24:12.312Z,16.50
2022-09-17T10:26:39.334Z,16.60
2022-09-17T10:29:14.695Z,16.70
2022-09-17T10:31:56.414Z,16.80
2022-09-17T10:34:30.879Z,16.90
2022-09-17T10:36:58.553Z,16.90
2022-09-17T10:39:38.531Z,16.90
2022-09-17T10:42:13.775Z,16.90
2022-09-17T10:44:55.565Z,17.00
2022-09-17T10:47:26.291Z,17.00
2022-09-17T10:50:07.587Z,17.10
2022-09-17T10:52:42.279Z,17.20
2022-09-17T10:55:35.876Z,17.30
2022-09-17T10:58:08.633Z,17.40
2022-09-17T11:01:09.088Z,17.40
2022-09-17T11:03:59.664Z,17.50
2022-09-17T11:06:45.777Z,17.50
2022-09-17T11:09:40.362Z,17.60
2022-09-17T11:12:19.016Z,17.50
2022-09-17T11:15:06.677Z,17.60
2022-09-17T11:17:52.271Z,17.70
2022-09-17T11:20:37.038Z,17.80
2022-09-17T11:23:24.781Z,17.90
2022-09-17T11:26:00.781Z,18.00
2022-09-17T11:29:07.727Z,18.10
2022-09-17T11:31:42.452Z,18.20
2022-09-17T11:34:24.250Z,18.30
2022-09-17T11:37:22.332Z,18.40
2022-09-17T11:40:00.710Z,18.40
2022-09-17T11:42:56.843Z,18.50
2022-09-17T11:45:34.759Z,18.60
2022-09-17T11:48:10.628Z,18.60
2022-09-17T11:50:46.095Z,18.60
2022-09-17T11:53:24.327Z,18.50
2022-09-17T11:56:02.812Z,18.50
2022-09-17T11:58:48.181Z,18.50
2022-09-17T12:01:32.778Z,18.60
2022-09-17T12:04:05.582Z,18.60
2022-09-17T12:06:40.446Z,18.60
2022-09-17T12:09:16.133Z,18.50
2022-09-17T12:12:21.720Z,18.60
2022-09-17T12:15:13.348Z,18.60
2022-09-17T12:18:30.561Z,18.60
2022-09-17T12:20:56.775Z,18.50
2022-09-17T12:23:30.533Z,18.50
2022-09-17T12:26:00.258Z,18.40
2022-09-17T12:28:53.655Z,18.40
2022-09-17T12:31:48.347Z,18.40
2022-09-17T12:34:53.571Z,18.40
2022-09-17T12:38:05.870Z,18.30
2022-09-17T12:40:45.923Z,18.20
2022-09-17T12:43:23.734Z,18.10
2022-09-17T12:45:56.782Z,18.00
2022-09-17T12:48:39.818Z,18.00
2022-09-17T12:51:41.169Z,17.90
2022-09-17T12:54:45.117Z,17.90
2022-09-17T12:57:20.868Z,17.80
2022-09-17T13:00:13.478Z,17.90
2022-09-17T13:03:01.348Z,17.90
2022-09-17T13:05:43.219Z,17.90
2022-09-17T13:08:28.611Z,17.90
2022-09-17T13:11:07.824Z,17.90
2022-09-17T13:14:17.376Z,17.90
2022-09-17T13:16:54.067Z,18.10
2022-09-17T13:19:47.735Z,18.20
2022-09-17T13:22:19.050Z,18.40
2022-09-17T13:24:49.078Z,18.40
2022-09-17T13:27:26.844Z,18.50
2022-09-17T13:29:53.734Z,18.50
2022-09-17T13:32:32.568Z,18.50
2022-09-17T13:35:22.697Z,18.40
2022-09-17T13:37:55.259Z,18.40
2022-09-17T13:40:26.575Z,18.40
2022-09-17T13:42:56.641Z,18.40
2022-09-17T13:45:25.386Z,18.40
2022-09-17T13:48:11.464Z,18.30
2022-09-17T13:50:43.435Z,18.20
2022-09-17T13:53:13.154Z,18.10
2022-09-17T13:55:53.007Z,18.10
2022-09-17T13:58:19.938Z,18.10
2022-09-17T14:00:55.482Z,18.20
2022-09-17T14:03:31.368Z,18.30
2022-09-17T14:06:19.506Z,18.40
2022-09-17T14:09:06.664Z,18.40
2022-09-17T14:11:33.914Z,18.50
2022-09-17T14:14:07.987Z,18.60
2022-09-17T14:16:46.128Z,18.70
2022-09-17T14:19:16.032Z,18.80
2022-09-17T14:22:02.022Z,18.90
2022-09-17T14:24:44.529Z,18.90
2022-09-17T14:27:29.747Z,19.10
2022-09-17T14:30:05.494Z,19.10
2022-09-17T14:32:54.025Z,19.10
2022-09-17T14:35:43.005Z,19.10
2022-09-17T14:38:14.623Z,19.10
2022-09-17T14:40:46.083Z,19.10
2022-09-17T14:43:24.829Z,19.00
2022-09-17T14:45:53.629Z,19.10
2022-09-17T14:48:31.443Z,19.10
2022-09-17T14:51:17.196Z,19.10
2022-09-17T14:53:48.473Z,19.00
2022-09-17T14:56:19.059Z,19.00
2022-09-17T14:58:54.607Z,19.00
2022-09-17T15:01:27.032Z,19.00
2022-09-17T15:04:12.740Z,19.10
2022-09-17T15:06:46.054Z,19.10
2022-09-17T15:09:17.836Z,19.10
2022-09-17T15:11:48.184Z,19.10
2022-09-17T15:14:27.092Z,19.10
2022-09-17T15:16:56.379Z,19.20
2022-09-17T15:19:37.706Z,19.20
2022-09-17T15:22:26.220Z,19.20
2022-09-17T15:24:56.177Z,19.20
2022-09-17T15:27:38.463Z,19.10
2022-09-17T15:30:22.694Z,19.10
2022-09-17T15:32:55.735Z,19.10
2022-09-17T15:35:31.537Z,19.10
2022-09-17T15:38:22.422Z,19.10
2022-09-17T15:40:50.638Z,19.10
2022-09-17T15:43:21.750Z,19.10
2022-09-17T15:45:48.656Z,19.10
2022-09-17T15:48:24.535Z,19.10
2022-09-17T15:50:54.110Z,19.00
2022-09-17T15:53:23.558Z,18.90
2022-09-17T15:56:14.421Z,18.90
2022-09-17T15:58:41.312Z,18.90
2022-09-17T16:01:13.973Z,18.80
2022-09-17T16:03:40.894Z,18.70
2022-09-17T16:06:20.145Z,18.70
2022-09-17T16:08:47.814Z,18.60
2022-09-17T16:11:19.099Z,18.50
2022-09-17T16:13:50.263Z,18.40
2022-09-17T16:16:19.620Z,18.30
2022-09-17T16:18:47.003Z,18.20
2022-09-17T16:21:14.631Z,18.10
2022-09-17T16:23:42.003Z,18.00
2022-09-17T16:26:15.142Z,17.90
2022-09-17T16:28:42.812Z,17.90
2022-09-17T16:31:13.483Z,17.80
2022-09-17T16:33:40.991Z,17.70
2022-09-17T16:36:08.045Z,17.60
2022-09-17T16:38:36.135Z,17.50
2022-09-17T16:41:05.770Z,17.40
2022-09-17T16:43:33.820Z,17.40
2022-09-17T16:46:06.371Z,17.30
2022-09-17T16:48:33.808Z,17.20
2022-09-17T16:51:06.307Z,17.10
2022-09-17T16:53:34.505Z,16.90
2022-09-17T16:56:01.574Z,16.90
2022-09-17T16:58:28.548Z,16.80
2022-09-17T17:00:55.528Z,16.70
2022-09-17T17:03:22.524Z,16.70
2022-09-17T17:05:49.476Z,16.50
2022-09-17T17:08:16.482Z,16.40
2022-09-17T17:10:43.345Z,16.40
2022-09-17T17:13:10.348Z,16.30
2022-09-17T17:15:41.163Z,16.20
2022-09-17T17:18:08.153Z,16.10
2022-09-17T17:20:36.132Z,16.00
2022-09-17T17:23:03.771Z,15.90
2022-09-17T17:25:32.184Z,15.90
2022-09-17T17:27:59.156Z,15.80
2022-09-17T17:30:26.068Z,15.80
2022-09-17T17:32:53.413Z,15.60
2022-09-17T17:35:20.992Z,15.60
2022-09-17T17:37:48.624Z,15.50
2022-09-17T17:40:15.738Z,15.40
2022-09-17T17:42:44.275Z,15.40
2022-09-17T17:45:11.613Z,15.30
2022-09-17T17:47:38.542Z,15.20
2022-09-17T17:50:05.882Z,15.10
2022-09-17T17:52:32.884Z,15.00
2022-09-17T17:54:59.739Z,15.00
2022-09-17T17:57:26.728Z,14.90
2022-09-17T17:59:53.591Z,14.90
2022-09-17T18:02:20.596Z,14.80
2022-09-17T18:04:47.710Z,14.70
2022-09-17T18:07:14.647Z,14.70
2022-09-17T18:09:41.576Z,14.60
2022-09-17T18:12:08.606Z,14.60
2022-09-17T18:14:35.511Z,14.50
2022-09-17T18:17:02.507Z,14.40
2022-09-17T18:19:29.459Z,14.40
2022-09-17T18:21:56.383Z,14.30
2022-09-17T18:24:23.230Z,14.20
2022-09-17T18:26:50.174Z,14.10
2022-09-17T18:29:17.071Z,14.10
2022-09-17T18:31:45.236Z,14.00
2022-09-17T18:34:14.554Z,13.90
2022-09-17T18:36:48.908Z,13.90
2022-09-17T18:39:57.563Z,13.90
2022-09-17T18:42:05.511Z,13.80
2022-09-17T18:44:32.496Z,13.70
2022-09-17T18:46:59.467Z,13.70
2022-09-17T18:49:26.423Z,13.70
2022-09-17T18:51:53.347Z,13.60
2022-09-17T18:54:20.286Z,13.60
2022-09-17T18:56:47.172Z,13.50
2022-09-17T18:59:14.142Z,13.50
2022-09-17T19:01:41.268Z,13.40
2022-09-17T19:04:08.464Z,13.40
2022-09-17T19:06:35.618Z,13.40
2022-09-17T19:09:04.083Z,13.40
2022-09-17T19:11:31.184Z,13.30
2022-09-17T19:13:58.724Z,13.30
2022-09-17T19:16:26.034Z,13.20
2022-09-17T19:18:52.979Z,13.20
2022-09-17T19:21:23.339Z,13.20
2022-09-17T19:23:51.937Z,13.10
2022-09-17T19:26:19.967Z,13.00
2022-09-17T19:28:47.369Z,13.00
2022-09-17T19:31:16.701Z,12.90
2022-09-17T19:33:45.038Z,12.90
2022-09-17T19:36:14.683Z,12.90
2022-09-17T19:38:42.070Z,12.90
2022-09-17T19:41:14.371Z,12.80
2022-09-17T19:43:41.397Z,12.70
2022-09-17T19:46:14.611Z,12.70
2022-09-17T19:48:52.521Z,12.70
2022-09-17T19:51:20.995Z,12.60
2022-09-17T19:53:47.935Z,12.60
2022-09-17T19:56:17.580Z,12.50
2022-09-17T19:58:44.907Z,12.50
2022-09-17T20:01:12.575Z,12.50
2022-09-17T20:03:40.750Z,12.50
2022-09-17T20:06:13.373Z,12.50
2022-09-17T20:08:51.387Z,12.40
2022-09-17T20:11:20.070Z,12.40
2022-09-17T20:13:47.202Z,12.40
2022-09-17T20:16:16.894Z,12.40
2022-09-17T20:18:44.143Z,12.40
2022-09-17T20:21:13.584Z,12.30
2022-09-17T20:23:40.731Z,12.20
2022-09-17T20:26:08.164Z,12.20
2022-09-17T20:28:35.226Z,12.20
2022-09-17T20:31:07.814Z,12.10
2022-09-17T20:33:35.053Z,12.10
2022-09-17T20:36:07.201Z,12.10
2022-09-17T20:41:22.330Z,12.00
2022-09-17T20:43:51.749Z,11.90
2022-09-17T20:46:22.733Z,11.90
2022-09-17T20:48:55.054Z,11.90
2022-09-17T20:51:23.722Z,11.80
2022-09-17T20:53:51.215Z,11.80
2022-09-17T20:56:24.042Z,11.80
2022-09-17T20:59:03.999Z,11.70
2022-09-17T21:01:36.811Z,11.70
2022-09-17T21:04:06.928Z,11.60
2022-09-17T21:06:37.239Z,11.60
2022-09-17T21:09:06.173Z,11.50
2022-09-17T21:11:34.277Z,11.50
2022-09-17T21:14:01.607Z,11.50
2022-09-17T21:16:29.409Z,11.50
2022-09-17T21:18:58.267Z,11.40
2022-09-17T21:21:25.958Z,11.40
2022-09-17T21:23:53.091Z,11.40
2022-09-17T21:26:24.244Z,11.40
2022-09-17T21:28:52.543Z,11.40
2022-09-17T21:31:21.707Z,11.40
2022-09-17T21:33:52.482Z,11.30
2022-09-17T21:36:21.440Z,11.40
2022-09-17T21:38:56.626Z,11.30
2022-09-17T21:41:24.852Z,11.30
2022-09-17T21:43:52.268Z,11.30
2022-09-17T21:46:22.150Z,11.30
2022-09-17T21:48:57.014Z,11.30
2022-09-17T21:51:30.754Z,11.30
2022-09-17T21:54:03.757Z,11.30
2022-09-17T21:56:31.815Z,11.20
2022-09-17T21:59:01.923Z,11.20
2022-09-17T22:01:31.979Z,11.20
2022-09-17T22:04:00.255Z,11.20
2022-09-17T22:06:29.673Z,11.20
2022-09-17T22:08:58.110Z,11.10
2022-09-17T22:11:31.239Z,11.10
2022-09-17T22:14:09.207Z,11.10
2022-09-17T22:16:39.150Z,11.00
2022-09-17T22:19:07.903Z,11.00
2022-09-17T22:21:37.658Z,11.00
2022-09-17T22:24:06.526Z,11.00
2022-09-17T22:26:36.112Z,10.90
2022-09-17T22:29:07.600Z,10.90
2022-09-17T22:31:34.842Z,10.90
2022-09-17T22:34:02.022Z,10.90
2022-09-17T22:36:29.435Z,10.90
2022-09-17T22:38:58.334Z,10.90
2022-09-17T22:41:26.747Z,10.90
2022-09-17T22:43:59.072Z,10.90
2022-09-17T22:46:28.543Z,10.90
2022-09-17T22:48:55.966Z,10.90
2022-09-17T22:51:23.773Z,10.90
2022-09-17T22:53:51.215Z,10.90
2022-09-17T22:56:20.687Z,10.90
2022-09-17T22:58:48.355Z,10.80
2022-09-17T23:01:17.847Z,10.80
2022-09-17T23:03:47.087Z,10.80
2022-09-17T23:06:16.632Z,10.80
2022-09-17T23:08:43.676Z,10.80
2022-09-17T23:11:18.057Z,10.70
2022-09-17T23:13:45.323Z,10.80
2022-09-17T23:16:12.268Z,10.70
2022-09-17T23:18:39.580Z,10.70
2022-09-17T23:21:10.018Z,10.70
2022-09-17T23:23:37.416Z,10.60
2022-09-17T23:26:07.858Z,10.60
2022-09-17T23:28:35.745Z,10.60
2022-09-17T23:31:16.281Z,10.60
2022-09-17T23:33:44.338Z,10.50
2022-09-17T23:36:17.294Z,10.50
2022-09-17T23:38:45.969Z,10.40
2022-09-17T23:41:20.364Z,10.40
2022-09-17T23:43:52.121Z,10.40
2022-09-17T23:46:20.664Z,10.40
2022-09-17T23:48:48.297Z,10.30
2022-09-17T23:51:16.560Z,10.30
2022-09-17T23:53:43.884Z,10.30
2022-09-17T23:56:14.079Z,10.30
2022-09-17T23:58:41.782Z,10.30
